createdAt,value
2022-08-27T00:00:34.744Z,1.90
2022-08-27T00:01:34.748Z,2.00
2022-08-27T00:02:34.708Z,2.30
2022-08-27T00:03:34.738Z,1.80
2022-08-27T00:04:34.748Z,2.00
2022-08-27T00:05:34.670Z,2.10
2022-08-27T00:06:34.664Z,2.40
2022-08-27T00:07:34.669Z,2.00
2022-08-27T00:08:34.678Z,1.70
2022-08-27T00:09:34.628Z,1.80
2022-08-27T00:10:34.622Z,1.70
2022-08-27T00:11:34.610Z,1.90
2022-08-27T00:12:34.632Z,2.00
2022-08-27T00:13:34.601Z,2.30
2022-08-27T00:14:34.602Z,2.10
2022-08-27T00:15:34.579Z,1.90
2022-08-27T00:16:34.578Z,1.90
2022-08-27T00:17:34.589Z,1.80
2022-08-27T00:18:34.532Z,1.90
2022-08-27T00:19:34.520Z,1.60
2022-08-27T00:20:34.514Z,2.00
2022-08-27T00:21:34.508Z,1.90
2022-08-27T00:22:34.507Z,1.70
2022-08-27T00:23:34.497Z,2.20
2022-08-27T00:24:34.465Z,2.10
2022-08-27T00:25:34.452Z,1.70
2022-08-27T00:26:34.436Z,1.70
2022-08-27T00:27:34.452Z,1.80
2022-08-27T00:28:34.435Z,1.80
2022-08-27T00:29:34.424Z,1.60
2022-08-27T00:30:34.392Z,1.50
2022-08-27T00:31:34.453Z,1.70
2022-08-27T00:32:34.398Z,2.00
2022-08-27T00:33:34.395Z,2.10
2022-08-27T00:34:34.349Z,1.40
2022-08-27T00:35:34.372Z,1.50
2022-08-27T00:36:34.332Z,1.50
2022-08-27T00:37:34.396Z,1.60
2022-08-27T00:38:34.311Z,1.60
2022-08-27T00:39:34.304Z,1.50
2022-08-27T00:40:34.313Z,1.60
2022-08-27T00:41:35.380Z,1.40
2022-08-27T00:42:34.266Z,1.40
2022-08-27T00:43:34.273Z,1.60
2022-08-27T00:44:34.237Z,1.40
2022-08-27T00:45:34.277Z,1.30
2022-08-27T00:46:34.248Z,1.40
2022-08-27T00:47:34.231Z,1.20
2022-08-27T00:48:34.197Z,1.20
2022-08-27T00:49:34.197Z,1.40
2022-08-27T00:50:41.071Z,1.30
2022-08-27T00:51:34.170Z,1.40
2022-08-27T00:52:34.166Z,1.30
2022-08-27T00:53:34.158Z,1.20
2022-08-27T00:54:34.143Z,1.20
2022-08-27T00:55:34.169Z,1.40
2022-08-27T00:56:34.106Z,1.50
2022-08-27T00:57:34.101Z,1.40
2022-08-27T00:58:35.127Z,1.20
2022-08-27T00:59:34.079Z,1.00
2022-08-27T01:00:34.129Z,1.10
2022-08-27T01:01:35.795Z,1.40
2022-08-27T01:02:34.105Z,1.20
2022-08-27T01:03:34.112Z,1.00
2022-08-27T01:04:34.039Z,1.20
2022-08-27T01:05:40.580Z,1.70
2022-08-27T01:06:34.003Z,1.30
2022-08-27T01:07:34.032Z,1.20
2022-08-27T01:08:33.986Z,1.00
2022-08-27T01:09:33.971Z,1.40
2022-08-27T01:10:33.966Z,1.20
2022-08-27T01:11:33.966Z,1.30
2022-08-27T01:12:33.938Z,1.40
2022-08-27T01:13:58.682Z,1.50
2022-08-27T01:14:34.917Z,1.00
2022-08-27T01:15:33.910Z,1.10
2022-08-27T01:16:33.964Z,1.10
2022-08-27T01:17:33.892Z,1.30
2022-08-27T01:18:33.876Z,1.90
2022-08-27T01:19:33.913Z,1.30
2022-08-27T01:20:34.582Z,1.20
2022-08-27T01:21:36.583Z,1.20
2022-08-27T01:22:34.865Z,1.20
2022-08-27T01:23:34.098Z,1.30
2022-08-27T01:24:33.857Z,1.50
2022-08-27T01:25:33.797Z,1.30
2022-08-27T01:26:33.777Z,1.10
2022-08-27T01:27:33.776Z,1.20
2022-08-27T01:28:37.473Z,1.20
2022-08-27T01:29:33.769Z,1.20
2022-08-27T01:30:33.772Z,1.00
2022-08-27T01:31:33.794Z,1.40
2022-08-27T01:32:34.585Z,1.20
2022-08-27T01:33:33.708Z,1.10
2022-08-27T01:34:34.577Z,1.10
2022-08-27T01:35:48.584Z,1.20
2022-08-27T01:36:34.608Z,1.10
2022-08-27T01:37:36.590Z,1.30
2022-08-27T01:38:33.653Z,1.50
2022-08-27T01:39:33.644Z,1.40
2022-08-27T01:40:33.683Z,1.30
2022-08-27T01:41:33.619Z,1.10
2022-08-27T01:42:35.604Z,1.60
2022-08-27T01:43:33.610Z,1.20
2022-08-27T01:44:33.602Z,1.90
2022-08-27T01:45:34.645Z,1.10
2022-08-27T01:46:33.621Z,1.10
2022-08-27T01:47:33.564Z,1.30
2022-08-27T01:48:33.553Z,1.50
2022-08-27T01:49:33.544Z,1.50
2022-08-27T01:50:33.525Z,1.10
2022-08-27T01:51:33.537Z,1.00
2022-08-27T01:52:33.495Z,1.00
2022-08-27T01:53:33.492Z,1.30
2022-08-27T01:54:33.535Z,1.30
2022-08-27T01:55:33.482Z,1.30
2022-08-27T01:56:36.082Z,1.20
2022-08-27T01:57:34.091Z,1.30
2022-08-27T01:58:33.433Z,1.10
2022-08-27T01:59:39.051Z,1.20
2022-08-27T02:00:34.481Z,1.20
2022-08-27T02:01:33.409Z,1.30
2022-08-27T02:02:33.399Z,1.40
2022-08-27T02:03:34.445Z,1.40
2022-08-27T02:04:33.366Z,1.30
2022-08-27T02:05:33.359Z,1.20
2022-08-27T02:06:34.353Z,1.10
2022-08-27T02:07:33.340Z,1.30
2022-08-27T02:08:33.602Z,1.40
2022-08-27T02:09:33.318Z,1.10
2022-08-27T02:10:33.339Z,1.10
2022-08-27T02:11:33.293Z,1.30
2022-08-27T02:12:33.283Z,1.40
2022-08-27T02:13:35.326Z,1.20
2022-08-27T02:14:36.088Z,1.50
2022-08-27T02:15:33.263Z,1.20
2022-08-27T02:16:33.304Z,1.30
2022-08-27T02:17:33.221Z,1.70
2022-08-27T02:18:33.220Z,1.40
2022-08-27T02:19:33.229Z,1.20
2022-08-27T02:20:33.188Z,1.10
2022-08-27T02:21:33.187Z,1.40
2022-08-27T02:22:34.083Z,1.30
2022-08-27T02:23:33.163Z,1.20
2022-08-27T02:24:33.154Z,1.30
2022-08-27T02:25:33.162Z,1.00
2022-08-27T02:26:33.125Z,1.30
2022-08-27T02:27:33.126Z,1.10
2022-08-27T02:28:33.128Z,1.10
2022-08-27T02:29:34.130Z,1.30
2022-08-27T02:30:33.087Z,1.10
2022-08-27T02:31:33.123Z,1.00
2022-08-27T02:32:33.061Z,1.10
2022-08-27T02:33:33.078Z,1.20
2022-08-27T02:34:33.117Z,1.00
2022-08-27T02:35:33.050Z,1.10
2022-08-27T02:36:33.038Z,1.50
2022-08-27T02:37:33.022Z,1.20
2022-08-27T02:38:32.996Z,1.20
2022-08-27T02:39:32.984Z,0.90
2022-08-27T02:40:33.205Z,1.10
2022-08-27T02:41:32.972Z,1.10
2022-08-27T02:42:32.956Z,1.00
2022-08-27T02:43:32.944Z,1.20
2022-08-27T02:44:33.599Z,0.80
2022-08-27T02:45:32.952Z,1.10
2022-08-27T02:46:33.675Z,0.80
2022-08-27T02:47:33.589Z,1.00
2022-08-27T02:48:32.922Z,1.00
2022-08-27T02:49:47.584Z,1.10
2022-08-27T02:50:32.900Z,1.20
2022-08-27T02:51:32.853Z,0.90
2022-08-27T02:52:39.595Z,1.00
2022-08-27T02:53:32.837Z,1.20
2022-08-27T02:54:33.837Z,0.80
2022-08-27T02:55:32.812Z,1.40
2022-08-27T02:56:32.824Z,1.50
2022-08-27T02:57:36.769Z,1.00
2022-08-27T02:58:36.099Z,1.00
2022-08-27T02:59:32.779Z,1.20
2022-08-27T03:00:32.753Z,1.10
2022-08-27T03:01:36.651Z,0.90
2022-08-27T03:02:33.766Z,1.20
2022-08-27T03:03:32.732Z,0.90
2022-08-27T03:04:32.713Z,1.00
2022-08-27T03:05:32.705Z,1.20
2022-08-27T03:06:33.135Z,1.00
2022-08-27T03:07:32.675Z,1.00
2022-08-27T03:08:52.004Z,1.40
2022-08-27T03:09:36.603Z,1.10
2022-08-27T03:10:32.644Z,1.00
2022-08-27T03:11:32.645Z,1.20
2022-08-27T03:12:32.648Z,1.00
2022-08-27T03:13:32.620Z,0.90
2022-08-27T03:14:32.634Z,1.00
2022-08-27T03:15:32.603Z,0.90
2022-08-27T03:16:32.667Z,1.10
2022-08-27T03:17:32.591Z,0.90
2022-08-27T03:18:32.569Z,1.00
2022-08-27T03:19:32.553Z,1.20
2022-08-27T03:20:32.559Z,1.00
2022-08-27T03:21:33.097Z,1.00
2022-08-27T03:22:32.522Z,0.90
2022-08-27T03:23:32.513Z,0.80
2022-08-27T03:24:32.522Z,1.10
2022-08-27T03:25:33.005Z,0.80
2022-08-27T03:26:32.481Z,1.00
2022-08-27T03:27:32.458Z,1.10
2022-08-27T03:28:32.444Z,1.00
2022-08-27T03:29:32.462Z,0.90
2022-08-27T03:30:32.430Z,0.80
2022-08-27T03:31:32.483Z,1.00
2022-08-27T03:32:32.399Z,0.90
2022-08-27T03:33:32.393Z,0.80
2022-08-27T03:34:32.414Z,1.00
2022-08-27T03:35:32.371Z,1.00
2022-08-27T03:36:32.386Z,1.30
2022-08-27T03:37:35.105Z,0.90
2022-08-27T03:38:32.341Z,1.20
2022-08-27T03:39:32.326Z,1.00
2022-08-27T03:40:32.424Z,0.80
2022-08-27T03:41:45.537Z,1.10
2022-08-27T03:42:33.295Z,0.80
2022-08-27T03:43:33.109Z,0.90
2022-08-27T03:44:32.279Z,0.90
2022-08-27T03:45:32.270Z,1.00
2022-08-27T03:46:33.317Z,0.90
2022-08-27T03:47:32.268Z,0.80
2022-08-27T03:48:35.115Z,1.00
2022-08-27T03:49:32.216Z,0.80
2022-08-27T03:50:33.261Z,1.10
2022-08-27T03:51:32.207Z,0.90
2022-08-27T03:52:32.217Z,0.80
2022-08-27T03:53:32.176Z,1.20
2022-08-27T03:54:32.173Z,0.80
2022-08-27T03:55:32.150Z,1.00
2022-08-27T03:56:32.172Z,0.90
2022-08-27T03:57:32.156Z,0.70
2022-08-27T03:58:32.127Z,0.90
2022-08-27T03:59:32.108Z,0.90
2022-08-27T04:00:32.130Z,0.80
2022-08-27T04:01:32.183Z,1.00
2022-08-27T04:02:32.129Z,1.10
2022-08-27T04:03:32.068Z,0.80
2022-08-27T04:04:32.058Z,1.50
2022-08-27T04:05:32.036Z,0.90
2022-08-27T04:06:32.048Z,0.70
2022-08-27T04:07:32.045Z,0.70
2022-08-27T04:08:32.036Z,0.80
2022-08-27T04:09:32.015Z,1.10
2022-08-27T04:10:34.783Z,1.00
2022-08-27T04:11:31.994Z,0.80
2022-08-27T04:12:32.604Z,0.90
2022-08-27T04:13:31.981Z,1.00
2022-08-27T04:14:31.945Z,0.90
2022-08-27T04:15:32.605Z,0.80
2022-08-27T04:16:31.974Z,1.20
2022-08-27T04:17:31.920Z,0.80
2022-08-27T04:18:31.918Z,0.90
2022-08-27T04:19:31.896Z,0.70
2022-08-27T04:20:35.511Z,1.00
2022-08-27T04:21:32.142Z,0.80
2022-08-27T04:22:31.859Z,0.80
2022-08-27T04:23:31.854Z,1.00
2022-08-27T04:24:32.134Z,1.00
2022-08-27T04:25:31.854Z,0.90
2022-08-27T04:26:31.849Z,0.80
2022-08-27T04:27:31.808Z,0.80
2022-08-27T04:28:35.257Z,0.70
2022-08-27T04:29:32.783Z,0.80
2022-08-27T04:30:31.796Z,0.90
2022-08-27T04:31:31.822Z,0.90
2022-08-27T04:32:31.753Z,0.90
2022-08-27T04:33:31.738Z,1.00
2022-08-27T04:34:31.755Z,0.60
2022-08-27T04:35:31.737Z,0.90
2022-08-27T04:36:32.604Z,0.90
2022-08-27T04:37:32.609Z,1.00
2022-08-27T04:38:31.678Z,0.70
2022-08-27T04:39:31.674Z,0.90
2022-08-27T04:40:31.751Z,0.70
2022-08-27T04:41:31.652Z,0.90
2022-08-27T04:42:31.638Z,1.10
2022-08-27T04:43:31.635Z,0.90
2022-08-27T04:44:31.614Z,0.70
2022-08-27T04:45:38.114Z,0.90
2022-08-27T04:46:31.660Z,1.00
2022-08-27T04:47:31.587Z,0.90
2022-08-27T04:48:34.105Z,1.20
2022-08-27T04:49:31.569Z,0.90
2022-08-27T04:50:31.552Z,1.00
2022-08-27T04:51:31.580Z,0.90
2022-08-27T04:52:31.535Z,0.90
2022-08-27T04:53:31.524Z,1.10
2022-08-27T04:54:32.659Z,1.10
2022-08-27T04:55:31.495Z,0.90
2022-08-27T04:56:31.498Z,0.90
2022-08-27T04:57:31.635Z,0.90
2022-08-27T04:58:32.114Z,0.80
2022-08-27T04:59:31.457Z,0.90
2022-08-27T05:00:31.439Z,0.90
2022-08-27T05:01:31.523Z,1.00
2022-08-27T05:02:31.458Z,1.00
2022-08-27T05:03:31.431Z,1.00
2022-08-27T05:04:31.427Z,0.70
2022-08-27T05:05:34.183Z,1.20
2022-08-27T05:06:31.384Z,0.70
2022-08-27T05:07:31.360Z,1.10
2022-08-27T05:08:31.387Z,0.80
2022-08-27T05:09:31.346Z,0.70
2022-08-27T05:10:34.112Z,1.00
2022-08-27T05:11:31.321Z,1.00
2022-08-27T05:12:31.340Z,0.80
2022-08-27T05:13:31.324Z,1.20
2022-08-27T05:14:32.129Z,0.70
2022-08-27T05:15:31.337Z,0.70
2022-08-27T05:16:31.267Z,0.60
2022-08-27T05:17:31.264Z,0.70
2022-08-27T05:18:34.174Z,1.20
2022-08-27T05:19:32.257Z,0.90
2022-08-27T05:20:32.682Z,0.90
2022-08-27T05:21:31.218Z,0.70
2022-08-27T05:22:31.202Z,1.00
2022-08-27T05:23:31.197Z,1.10
2022-08-27T05:24:32.201Z,0.90
2022-08-27T05:25:31.171Z,0.90
2022-08-27T05:26:31.152Z,0.90
2022-08-27T05:27:31.148Z,1.10
2022-08-27T05:28:31.214Z,1.00
2022-08-27T05:29:31.137Z,1.00
2022-08-27T05:30:31.126Z,0.80
2022-08-27T05:31:31.174Z,1.00
2022-08-27T05:32:31.154Z,0.90
2022-08-27T05:33:31.080Z,0.90
2022-08-27T05:34:31.077Z,1.20
2022-08-27T05:35:31.055Z,0.90
2022-08-27T05:36:31.058Z,0.70
2022-08-27T05:37:31.057Z,1.20
2022-08-27T05:38:31.045Z,0.90
2022-08-27T05:39:31.015Z,0.80
2022-08-27T05:40:31.215Z,0.80
2022-08-27T05:41:34.311Z,0.90
2022-08-27T05:42:31.204Z,1.10
2022-08-27T05:43:30.970Z,0.70
2022-08-27T05:44:41.079Z,0.70
2022-08-27T05:45:31.947Z,1.10
2022-08-27T05:46:31.073Z,1.10
2022-08-27T05:47:30.921Z,1.10
2022-08-27T05:48:30.972Z,1.10
2022-08-27T05:49:30.905Z,0.80
2022-08-27T05:50:32.074Z,0.70
2022-08-27T05:51:30.884Z,0.90
2022-08-27T05:52:31.007Z,1.10
2022-08-27T05:53:30.880Z,0.90
2022-08-27T05:54:31.032Z,0.90
2022-08-27T05:55:30.825Z,1.00
2022-08-27T05:56:30.883Z,1.00
2022-08-27T05:57:30.833Z,0.80
2022-08-27T05:58:30.810Z,0.90
2022-08-27T05:59:30.848Z,1.10
2022-08-27T06:00:30.792Z,1.10
2022-08-27T06:01:30.914Z,0.70
2022-08-27T06:02:30.839Z,0.70
2022-08-27T06:03:30.928Z,0.70
2022-08-27T06:04:30.743Z,1.00
2022-08-27T06:05:30.959Z,0.90
2022-08-27T06:06:30.719Z,0.80
2022-08-27T06:07:30.905Z,0.90
2022-08-27T06:08:30.697Z,0.60
2022-08-27T06:09:30.765Z,0.80
2022-08-27T06:10:30.707Z,1.00
2022-08-27T06:11:30.668Z,0.80
2022-08-27T06:12:30.657Z,1.00
2022-08-27T06:13:30.648Z,0.60
2022-08-27T06:14:30.665Z,0.80
2022-08-27T06:15:30.680Z,0.90
2022-08-27T06:16:30.601Z,0.70
2022-08-27T06:17:30.952Z,0.90
2022-08-27T06:18:30.823Z,1.20
2022-08-27T06:19:30.604Z,0.80
2022-08-27T06:20:30.794Z,1.00
2022-08-27T06:21:30.556Z,0.90
2022-08-27T06:22:30.552Z,1.10
2022-08-27T06:23:30.595Z,0.90
2022-08-27T06:24:30.552Z,0.80
2022-08-27T06:25:30.534Z,0.70
2022-08-27T06:26:30.512Z,0.80
2022-08-27T06:27:33.124Z,0.90
2022-08-27T06:28:30.487Z,1.00
2022-08-27T06:29:30.462Z,0.80
2022-08-27T06:30:30.656Z,1.10
2022-08-27T06:31:31.765Z,0.80
2022-08-27T06:32:30.443Z,0.90
2022-08-27T06:33:31.119Z,0.70
2022-08-27T06:34:30.416Z,0.70
2022-08-27T06:35:33.941Z,0.80
2022-08-27T06:36:30.395Z,0.80
2022-08-27T06:37:30.694Z,1.00
2022-08-27T06:38:30.400Z,0.80
2022-08-27T06:39:30.832Z,0.90
2022-08-27T06:40:30.427Z,0.80
2022-08-27T06:41:30.441Z,0.70
2022-08-27T06:42:30.367Z,0.90
2022-08-27T06:43:30.320Z,0.80
2022-08-27T06:44:30.316Z,0.90
2022-08-27T06:45:30.297Z,0.80
2022-08-27T06:46:31.224Z,0.70
2022-08-27T06:47:30.266Z,1.50
2022-08-27T06:48:31.127Z,0.90
2022-08-27T06:49:30.256Z,0.80
2022-08-27T06:50:30.244Z,0.80
2022-08-27T06:51:30.227Z,1.00
2022-08-27T06:52:30.245Z,1.10
2022-08-27T06:53:30.217Z,1.00
2022-08-27T06:54:30.206Z,1.10
2022-08-27T06:55:37.119Z,0.90
2022-08-27T06:56:30.184Z,1.00
2022-08-27T06:57:30.185Z,0.80
2022-08-27T06:58:30.175Z,1.20
2022-08-27T06:59:30.138Z,1.10
2022-08-27T07:00:30.138Z,1.00
2022-08-27T07:01:30.455Z,0.90
2022-08-27T07:02:30.693Z,1.20
2022-08-27T07:03:30.136Z,0.80
2022-08-27T07:04:32.782Z,0.90
2022-08-27T07:05:30.073Z,0.80
2022-08-27T07:06:30.075Z,1.00
2022-08-27T07:07:34.501Z,0.70
2022-08-27T07:08:31.063Z,1.00
2022-08-27T07:09:30.037Z,0.70
2022-08-27T07:10:30.018Z,1.10
2022-08-27T07:11:30.015Z,0.90
2022-08-27T07:12:30.652Z,0.80
2022-08-27T07:13:29.994Z,0.70
2022-08-27T07:14:32.982Z,0.70
2022-08-27T07:15:45.698Z,0.70
2022-08-27T07:16:30.636Z,1.20
2022-08-27T07:17:29.952Z,1.00
2022-08-27T07:18:29.937Z,0.80
2022-08-27T07:19:30.167Z,0.70
2022-08-27T07:20:29.925Z,0.80
2022-08-27T07:21:29.896Z,1.20
2022-08-27T07:22:30.636Z,1.10
2022-08-27T07:23:29.877Z,0.90
2022-08-27T07:24:29.885Z,1.40
2022-08-27T07:25:29.877Z,0.90
2022-08-27T07:26:29.847Z,0.90
2022-08-27T07:27:29.836Z,0.80
2022-08-27T07:28:29.826Z,1.30
2022-08-27T07:29:32.254Z,0.80
2022-08-27T07:30:29.885Z,0.90
2022-08-27T07:31:29.810Z,1.20
2022-08-27T07:32:30.534Z,0.80
2022-08-27T07:33:29.772Z,1.00
2022-08-27T07:34:29.758Z,0.90
2022-08-27T07:35:29.754Z,1.10
2022-08-27T07:36:29.750Z,0.90
2022-08-27T07:37:35.126Z,1.00
2022-08-27T07:38:30.721Z,1.00
2022-08-27T07:39:29.713Z,0.80
2022-08-27T07:40:29.818Z,1.30
2022-08-27T07:41:31.384Z,1.10
2022-08-27T07:42:29.690Z,0.80
2022-08-27T07:43:29.694Z,0.80
2022-08-27T07:44:33.062Z,1.10
2022-08-27T07:45:30.641Z,1.30
2022-08-27T07:46:29.716Z,1.00
2022-08-27T07:47:29.641Z,1.10
2022-08-27T07:48:29.622Z,0.80
2022-08-27T07:49:29.602Z,1.10
2022-08-27T07:50:29.584Z,0.70
2022-08-27T07:51:29.569Z,0.70
2022-08-27T07:52:29.560Z,1.00
2022-08-27T07:53:29.584Z,0.70
2022-08-27T07:54:29.567Z,1.00
2022-08-27T07:55:29.529Z,0.70
2022-08-27T07:56:29.533Z,1.10
2022-08-27T07:57:29.487Z,0.80
2022-08-27T07:58:30.153Z,0.90
2022-08-27T07:59:29.525Z,0.90
2022-08-27T08:00:29.477Z,0.80
2022-08-27T08:01:29.514Z,0.90
2022-08-27T08:02:29.480Z,0.90
2022-08-27T08:03:29.443Z,0.60
2022-08-27T08:04:29.468Z,0.80
2022-08-27T08:05:29.435Z,0.70
2022-08-27T08:06:29.444Z,0.90
2022-08-27T08:07:29.400Z,0.80
2022-08-27T08:08:29.401Z,0.80
2022-08-27T08:09:29.400Z,0.60
2022-08-27T08:10:32.395Z,0.60
2022-08-27T08:11:30.382Z,0.70
2022-08-27T08:12:29.409Z,0.80
2022-08-27T08:13:29.344Z,0.80
2022-08-27T08:14:29.331Z,0.90
2022-08-27T08:15:29.336Z,0.70
2022-08-27T08:16:31.738Z,0.70
2022-08-27T08:17:29.311Z,0.90
2022-08-27T08:18:29.296Z,1.20
2022-08-27T08:19:29.277Z,0.90
2022-08-27T08:20:54.290Z,0.60
2022-08-27T08:21:30.273Z,0.80
2022-08-27T08:22:29.250Z,1.10
2022-08-27T08:23:29.230Z,1.00
2022-08-27T08:24:29.229Z,0.70
2022-08-27T08:25:29.255Z,0.80
2022-08-27T08:26:30.219Z,0.80
2022-08-27T08:27:29.230Z,0.90
2022-08-27T08:28:29.197Z,0.80
2022-08-27T08:29:32.157Z,0.50
2022-08-27T08:30:31.248Z,0.90
2022-08-27T08:31:30.162Z,0.70
2022-08-27T08:32:29.138Z,0.60
2022-08-27T08:33:31.240Z,0.70
2022-08-27T08:34:29.138Z,0.60
2022-08-27T08:35:33.662Z,1.30
2022-08-27T08:36:30.644Z,0.80
2022-08-27T08:37:29.094Z,0.70
2022-08-27T08:38:29.646Z,0.60
2022-08-27T08:39:29.088Z,0.70
2022-08-27T08:40:29.204Z,0.50
2022-08-27T08:41:31.019Z,0.80
2022-08-27T08:42:29.037Z,0.70
2022-08-27T08:43:29.022Z,0.60
2022-08-27T08:44:29.215Z,0.50
2022-08-27T08:45:29.000Z,0.50
2022-08-27T08:46:29.057Z,0.60
2022-08-27T08:47:29.649Z,0.80
2022-08-27T08:48:28.972Z,0.50
2022-08-27T08:49:28.954Z,0.70
2022-08-27T08:50:28.971Z,0.60
2022-08-27T08:51:28.939Z,0.40
2022-08-27T08:52:31.190Z,0.70
2022-08-27T08:53:29.647Z,0.80
2022-08-27T08:54:28.908Z,0.80
2022-08-27T08:55:28.909Z,0.70
2022-08-27T08:56:28.898Z,0.50
2022-08-27T08:57:28.867Z,0.80
2022-08-27T08:58:28.883Z,0.50
2022-08-27T08:59:28.855Z,0.60
2022-08-27T09:00:28.826Z,0.50
2022-08-27T09:01:28.898Z,0.50
2022-08-27T09:02:28.799Z,0.80
2022-08-27T09:03:28.865Z,0.80
2022-08-27T09:04:28.799Z,0.50
2022-08-27T09:05:28.816Z,0.70
2022-08-27T09:06:28.760Z,0.40
2022-08-27T09:07:28.757Z,0.70
2022-08-27T09:08:35.198Z,0.50
2022-08-27T09:09:29.736Z,0.60
2022-08-27T09:10:28.740Z,0.50
2022-08-27T09:11:28.725Z,0.60
2022-08-27T09:12:29.180Z,0.60
2022-08-27T09:13:29.655Z,0.80
2022-08-27T09:14:28.680Z,0.60
2022-08-27T09:15:28.672Z,0.60
2022-08-27T09:16:28.763Z,0.90
2022-08-27T09:17:28.643Z,0.60
2022-08-27T09:18:28.675Z,1.00
2022-08-27T09:19:28.619Z,0.80
2022-08-27T09:20:28.616Z,0.60
2022-08-27T09:21:28.598Z,0.70
2022-08-27T09:22:28.617Z,0.80
2022-08-27T09:23:28.570Z,0.90
2022-08-27T09:24:28.564Z,0.70
2022-08-27T09:25:28.566Z,0.70
2022-08-27T09:26:28.547Z,1.10
2022-08-27T09:27:28.528Z,0.70
2022-08-27T09:28:28.538Z,0.60
2022-08-27T09:29:28.502Z,0.70
2022-08-27T09:30:30.787Z,0.60
2022-08-27T09:31:28.488Z,0.90
2022-08-27T09:32:28.505Z,0.70
2022-08-27T09:33:28.475Z,0.50
2022-08-27T09:34:29.744Z,0.90
2022-08-27T09:35:28.457Z,0.70
2022-08-27T09:36:28.441Z,0.60
2022-08-27T09:37:33.822Z,1.00
2022-08-27T09:38:29.404Z,0.60
2022-08-27T09:39:36.179Z,0.70
2022-08-27T09:40:28.737Z,0.60
2022-08-27T09:41:28.403Z,0.60
2022-08-27T09:42:28.400Z,0.50
2022-08-27T09:43:28.366Z,0.80
2022-08-27T09:44:28.349Z,0.80
2022-08-27T09:45:28.415Z,0.60
2022-08-27T09:46:31.156Z,0.60
2022-08-27T09:47:28.314Z,0.80
2022-08-27T09:48:28.295Z,0.80
2022-08-27T09:49:29.171Z,0.90
2022-08-27T09:50:28.731Z,0.60
2022-08-27T09:51:28.271Z,0.80
2022-08-27T09:52:28.253Z,0.70
2022-08-27T09:53:30.221Z,0.70
2022-08-27T09:54:28.237Z,0.80
2022-08-27T09:55:28.224Z,0.80
2022-08-27T09:56:28.241Z,0.70
2022-08-27T09:57:28.806Z,1.00
2022-08-27T09:58:28.180Z,1.00
2022-08-27T09:59:28.173Z,1.00
2022-08-27T10:00:28.171Z,0.70
2022-08-27T10:01:28.248Z,0.90
2022-08-27T10:02:28.165Z,0.90
2022-08-27T10:03:33.090Z,1.00
2022-08-27T10:04:29.214Z,0.80
2022-08-27T10:05:28.119Z,0.90
2022-08-27T10:06:28.102Z,0.90
2022-08-27T10:07:28.098Z,0.90
2022-08-27T10:08:28.075Z,0.70
2022-08-27T10:09:28.072Z,0.90
2022-08-27T10:10:28.075Z,1.00
2022-08-27T10:11:28.677Z,0.80
2022-08-27T10:12:28.035Z,1.00
2022-08-27T10:13:28.037Z,0.70
2022-08-27T10:14:28.011Z,0.70
2022-08-27T10:15:28.025Z,0.80
2022-08-27T10:16:28.047Z,1.00
2022-08-27T10:17:27.981Z,0.90
2022-08-27T10:18:27.966Z,0.70
2022-08-27T10:19:27.958Z,1.00
2022-08-27T10:20:30.880Z,0.90
2022-08-27T10:21:27.939Z,0.90
2022-08-27T10:22:27.919Z,0.90
2022-08-27T10:23:27.918Z,0.90
2022-08-27T10:24:27.901Z,0.80
2022-08-27T10:25:27.926Z,0.80
2022-08-27T10:26:31.859Z,0.90
2022-08-27T10:27:28.870Z,0.70
2022-08-27T10:28:27.871Z,0.80
2022-08-27T10:29:28.192Z,1.10
2022-08-27T10:30:27.864Z,1.10
2022-08-27T10:31:27.916Z,1.00
2022-08-27T10:32:27.832Z,0.70
2022-08-27T10:33:27.796Z,0.70
2022-08-27T10:34:28.853Z,0.70
2022-08-27T10:35:27.790Z,1.20
2022-08-27T10:36:27.786Z,1.20
2022-08-27T10:37:27.782Z,0.80
2022-08-27T10:38:28.770Z,0.80
2022-08-27T10:39:27.751Z,0.70
2022-08-27T10:40:27.792Z,0.90
2022-08-27T10:41:27.722Z,0.80
2022-08-27T10:42:27.714Z,0.60
2022-08-27T10:43:27.698Z,0.80
2022-08-27T10:44:27.688Z,0.90
2022-08-27T10:45:31.103Z,1.00
2022-08-27T10:46:27.691Z,0.80
2022-08-27T10:47:28.697Z,1.30
2022-08-27T10:48:27.660Z,0.90
2022-08-27T10:49:27.703Z,0.70
2022-08-27T10:50:27.647Z,0.70
2022-08-27T10:51:27.660Z,0.80
2022-08-27T10:52:27.600Z,0.70
2022-08-27T10:53:27.584Z,0.70
2022-08-27T10:54:27.714Z,0.70
2022-08-27T10:55:28.629Z,0.90
2022-08-27T10:56:27.562Z,0.70
2022-08-27T10:57:40.255Z,0.60
2022-08-27T10:58:28.528Z,0.80
2022-08-27T10:59:28.011Z,0.80
2022-08-27T11:00:28.132Z,0.90
2022-08-27T11:01:30.224Z,0.90
2022-08-27T11:02:30.237Z,0.70
2022-08-27T11:03:27.506Z,0.90
2022-08-27T11:04:28.505Z,0.80
2022-08-27T11:05:27.464Z,0.90
2022-08-27T11:06:27.446Z,0.80
2022-08-27T11:07:27.444Z,0.80
2022-08-27T11:08:27.442Z,0.70
2022-08-27T11:09:28.480Z,0.90
2022-08-27T11:10:27.407Z,0.80
2022-08-27T11:12:28.427Z,1.20
2022-08-27T11:13:27.370Z,0.90
2022-08-27T11:14:27.355Z,0.70
2022-08-27T11:15:27.354Z,0.80
2022-08-27T11:16:27.426Z,0.70
2022-08-27T11:17:27.335Z,0.80
2022-08-27T11:18:28.346Z,0.90
2022-08-27T11:19:27.304Z,0.80
2022-08-27T11:20:27.297Z,0.80
2022-08-27T11:21:27.296Z,0.70
2022-08-27T11:22:27.280Z,0.90
2022-08-27T11:23:28.168Z,0.70
2022-08-27T11:24:28.495Z,0.80
2022-08-27T11:25:27.247Z,0.90
2022-08-27T11:26:27.703Z,0.80
2022-08-27T11:27:27.225Z,0.90
2022-08-27T11:28:29.980Z,0.60
2022-08-27T11:29:27.203Z,0.50
2022-08-27T11:30:27.189Z,0.50
2022-08-27T11:31:27.222Z,0.70
2022-08-27T11:32:27.185Z,1.10
2022-08-27T11:33:27.164Z,0.70
2022-08-27T11:34:27.141Z,0.70
2022-08-27T11:35:27.134Z,0.70
2022-08-27T11:36:27.149Z,0.80
2022-08-27T11:37:27.681Z,0.80
2022-08-27T11:38:27.683Z,0.70
2022-08-27T11:39:27.095Z,0.70
2022-08-27T11:40:27.128Z,1.10
2022-08-27T11:41:27.080Z,0.90
2022-08-27T11:42:27.108Z,1.00
2022-08-27T11:43:27.047Z,1.30
2022-08-27T11:44:27.681Z,1.00
2022-08-27T11:45:27.029Z,0.90
2022-08-27T11:46:27.106Z,0.70
2022-08-27T11:47:27.001Z,1.10
2022-08-27T11:48:27.021Z,1.00
2022-08-27T11:49:27.206Z,0.80
2022-08-27T11:50:26.978Z,0.80
2022-08-27T11:51:26.965Z,0.90
2022-08-27T11:52:26.950Z,0.90
2022-08-27T11:53:29.683Z,0.70
2022-08-27T11:54:27.219Z,0.70
2022-08-27T11:55:26.930Z,0.80
2022-08-27T11:56:29.682Z,0.50
2022-08-27T11:57:33.684Z,0.70
2022-08-27T11:58:27.215Z,0.70
2022-08-27T11:59:29.255Z,0.60
2022-08-27T12:00:26.859Z,1.00
2022-08-27T12:01:33.685Z,0.50
2022-08-27T12:02:26.867Z,0.70
2022-08-27T12:03:29.752Z,0.50
2022-08-27T12:04:26.846Z,0.50
2022-08-27T12:05:26.995Z,0.90
2022-08-27T12:06:26.836Z,0.60
2022-08-27T12:07:27.683Z,0.70
2022-08-27T12:08:26.787Z,0.80
2022-08-27T12:09:27.686Z,0.60
2022-08-27T12:10:26.766Z,0.60
2022-08-27T12:11:26.747Z,0.60
2022-08-27T12:12:27.814Z,0.60
2022-08-27T12:13:26.740Z,0.60
2022-08-27T12:14:26.730Z,0.60
2022-08-27T12:15:31.032Z,0.60
2022-08-27T12:16:27.935Z,0.60
2022-08-27T12:17:26.679Z,0.50
2022-08-27T12:18:26.715Z,0.50
2022-08-27T12:19:26.671Z,0.50
2022-08-27T12:20:26.643Z,0.80
2022-08-27T12:21:26.668Z,0.50
2022-08-27T12:22:26.632Z,0.60
2022-08-27T12:23:33.192Z,0.50
2022-08-27T12:24:26.611Z,0.60
2022-08-27T12:25:26.602Z,0.50
2022-08-27T12:26:33.182Z,0.70
2022-08-27T12:27:26.722Z,0.70
2022-08-27T12:28:27.018Z,0.70
2022-08-27T12:29:27.895Z,0.60
2022-08-27T12:30:26.534Z,0.50
2022-08-27T12:31:26.595Z,0.60
2022-08-27T12:32:26.509Z,0.50
2022-08-27T12:33:26.528Z,0.70
2022-08-27T12:34:26.503Z,0.50
2022-08-27T12:35:26.517Z,0.50
2022-08-27T12:36:28.086Z,0.60
2022-08-27T12:37:26.463Z,0.50
2022-08-27T12:38:26.452Z,0.90
2022-08-27T12:39:26.451Z,0.70
2022-08-27T12:40:26.512Z,0.40
2022-08-27T12:41:26.451Z,0.50
2022-08-27T12:42:26.412Z,0.50
2022-08-27T12:43:26.401Z,0.60
2022-08-27T12:44:26.400Z,0.60
2022-08-27T12:45:26.395Z,0.60
2022-08-27T12:46:26.508Z,0.70
2022-08-27T12:47:26.355Z,0.70
2022-08-27T12:48:26.349Z,0.60
2022-08-27T12:49:37.983Z,0.80
2022-08-27T12:50:27.324Z,0.90
2022-08-27T12:51:26.325Z,0.60
2022-08-27T12:52:26.329Z,0.60
2022-08-27T12:53:26.281Z,0.80
2022-08-27T12:54:30.073Z,0.50
2022-08-27T12:55:26.266Z,0.60
2022-08-27T12:56:26.288Z,0.60
2022-08-27T12:57:26.253Z,0.50
2022-08-27T12:58:26.243Z,1.00
2022-08-27T12:59:26.270Z,0.60
2022-08-27T13:00:26.567Z,0.70
2022-08-27T13:01:26.395Z,0.60
2022-08-27T13:02:26.188Z,0.60
2022-08-27T13:03:26.182Z,0.50
2022-08-27T13:04:26.173Z,0.60
2022-08-27T13:05:26.169Z,0.50
2022-08-27T13:06:26.173Z,0.60
2022-08-27T13:07:26.134Z,0.70
2022-08-27T13:08:26.130Z,0.50
2022-08-27T13:09:26.131Z,0.60
2022-08-27T13:10:26.124Z,0.90
2022-08-27T13:11:26.122Z,0.60
2022-08-27T13:12:26.097Z,0.80
2022-08-27T13:13:26.089Z,0.60
2022-08-27T13:14:26.066Z,0.80
2022-08-27T13:15:26.060Z,0.60
2022-08-27T13:16:26.107Z,0.60
2022-08-27T13:17:26.036Z,0.60
2022-08-27T13:18:29.898Z,0.50
2022-08-27T13:19:26.013Z,0.80